Saraphi, Thailand
Current Conditions -  °F | °C
As of 5:30 PM on Tuesday 21 Oct 2014 (Local Time) from VTCC Reporting Station
Broken Clouds Broken Clouds  
Wind Chill: 84°   Ceiling: 3500
Heat Index: 87°   Visibility: 6mi
Dew Point: 68°   Wind: 2mph
Humidity: 58%   Direction: 300°WNW
Pressure: 29.94"   Gusts: NA
Location:  18.7°N, 99.05°E
Report Text: VTCC 211030Z 30002KT 9999 BKN035 29/20 Q1014 A2996 NOSIG
Loading
Personal Weather Stations






























Interactive Weather Map
Tropical Storm Tracking
New forecast layout! Learn more

10-Day Weather Forecast

Advertisements
Track Severe Weather on mobile